createdAt,value
2019-01-11T00:00:31.855Z,1019.78
2019-01-11T00:01:31.819Z,1019.76
2019-01-11T00:02:31.897Z,1019.72
2019-01-11T00:03:31.801Z,1019.70
2019-01-11T00:04:31.898Z,1019.70
2019-01-11T00:05:31.790Z,1019.71
2019-01-11T00:06:31.797Z,1019.68
2019-01-11T00:07:31.789Z,1019.69
2019-01-11T00:08:31.810Z,1019.69
2019-01-11T00:09:31.735Z,1019.72
2019-01-11T00:10:31.822Z,1019.70
2019-01-11T00:11:31.741Z,1019.72
2019-01-11T00:12:31.763Z,1019.71
2019-01-11T00:13:32.914Z,1019.72
2019-01-11T00:14:31.750Z,1019.67
2019-01-11T00:15:31.671Z,1019.71
2019-01-11T00:16:31.758Z,1019.68
2019-01-11T00:17:31.663Z,1019.66
2019-01-11T00:18:31.670Z,1019.65
2019-01-11T00:19:32.924Z,1019.65
2019-01-11T00:20:31.713Z,1019.60
2019-01-11T00:21:31.613Z,1019.57
2019-01-11T00:22:31.727Z,1019.57
2019-01-11T00:23:31.623Z,1019.58
2019-01-11T00:24:31.611Z,1019.58
2019-01-11T00:25:31.584Z,1019.57
2019-01-11T00:26:31.618Z,1019.46
2019-01-11T00:27:31.610Z,1019.50
2019-01-11T00:28:31.652Z,1019.47
2019-01-11T00:29:31.532Z,1019.44
2019-01-11T00:30:31.547Z,1019.32
2019-01-11T00:31:31.502Z,1019.39
2019-01-11T00:32:31.595Z,1019.38
2019-01-11T00:33:31.481Z,1019.36
2019-01-11T00:34:31.575Z,1019.41
2019-01-11T00:35:31.496Z,1019.34
2019-01-11T00:36:31.484Z,1019.35
2019-01-11T00:37:31.454Z,1019.34
2019-01-11T00:38:31.493Z,1019.33
2019-01-11T00:39:31.417Z,1019.35
2019-01-11T00:40:31.505Z,1019.31
2019-01-11T00:41:31.399Z,1019.33
2019-01-11T00:42:31.467Z,1019.31
2019-01-11T00:43:31.396Z,1019.27
2019-01-11T00:44:31.437Z,1019.31
2019-01-11T00:45:31.356Z,1019.30
2019-01-11T00:46:31.447Z,1019.28
2019-01-11T00:47:31.336Z,1019.23
2019-01-11T00:48:31.386Z,1019.25
2019-01-11T00:49:31.318Z,1019.24
2019-01-11T00:50:31.392Z,1019.26
2019-01-11T00:51:31.310Z,1019.27
2019-01-11T00:52:31.390Z,1019.17
2019-01-11T00:53:31.282Z,1019.25
2019-01-11T00:54:31.307Z,1019.23
2019-01-11T00:55:31.246Z,1019.16
2019-01-11T00:56:31.251Z,1019.18
2019-01-11T00:57:31.224Z,1019.22
2019-01-11T00:58:31.258Z,1019.15
2019-01-11T00:59:31.237Z,1019.24
2019-01-11T01:00:31.276Z,1019.18
2019-01-11T01:01:31.177Z,1019.17
2019-01-11T01:02:31.251Z,1019.13
2019-01-11T01:03:31.184Z,1019.14
2019-01-11T01:04:31.342Z,1019.16
2019-01-11T01:05:31.159Z,1019.13
2019-01-11T01:06:31.177Z,1019.14
2019-01-11T01:07:31.116Z,1019.15
2019-01-11T01:08:31.220Z,1019.17
2019-01-11T01:09:31.185Z,1019.11
2019-01-11T01:10:31.198Z,1019.10
2019-01-11T01:11:31.106Z,1019.11
2019-01-11T01:12:31.110Z,1019.09
2019-01-11T01:13:31.069Z,1019.07
2019-01-11T01:14:31.125Z,1019.09
2019-01-11T01:15:31.063Z,1019.13
2019-01-11T01:16:31.136Z,1019.09
2019-01-11T01:17:31.024Z,1019.10
2019-01-11T01:18:31.085Z,1019.06
2019-01-11T01:19:30.996Z,1019.11
2019-01-11T01:20:31.063Z,1019.07
2019-01-11T01:21:30.967Z,1019.02
2019-01-11T01:22:31.082Z,1019.10
2019-01-11T01:23:30.963Z,1019.08
2019-01-11T01:24:31.023Z,1019.11
2019-01-11T01:25:30.934Z,1019.09
2019-01-11T01:26:31.003Z,1019.07
2019-01-11T01:27:30.906Z,1019.05
2019-01-11T01:28:30.948Z,1019.00
2019-01-11T01:29:30.900Z,1019.07
2019-01-11T01:30:30.923Z,1019.02
2019-01-11T01:31:30.878Z,1019.00
2019-01-11T01:32:30.938Z,1019.00
2019-01-11T01:33:30.867Z,1019.01
2019-01-11T01:34:30.851Z,1018.99
2019-01-11T01:35:30.861Z,1019.01
2019-01-11T01:36:31.281Z,1018.91
2019-01-11T01:37:30.797Z,1018.91
2019-01-11T01:38:30.834Z,1018.96
2019-01-11T01:39:30.778Z,1018.90
2019-01-11T01:40:30.783Z,1018.91
2019-01-11T01:41:30.760Z,1018.92
2019-01-11T01:42:30.813Z,1018.93
2019-01-11T01:43:30.731Z,1018.88
2019-01-11T01:44:30.845Z,1018.89
2019-01-11T01:45:30.736Z,1018.86
2019-01-11T01:46:30.731Z,1018.82
2019-01-11T01:47:30.712Z,1018.85
2019-01-11T01:48:30.740Z,1018.79
2019-01-11T01:49:30.695Z,1018.85
2019-01-11T01:50:30.792Z,1018.85
2019-01-11T01:51:30.662Z,1018.80
2019-01-11T01:52:30.667Z,1018.83
2019-01-11T01:53:30.634Z,1018.77
2019-01-11T01:54:30.708Z,1018.73
2019-01-11T01:55:30.606Z,1018.76
2019-01-11T01:56:31.097Z,1018.80
2019-01-11T01:57:30.607Z,1018.70
2019-01-11T01:58:30.605Z,1018.79
2019-01-11T01:59:30.610Z,1018.74
2019-01-11T02:00:30.625Z,1018.74
2019-01-11T02:01:30.553Z,1018.73
2019-01-11T02:02:30.630Z,1018.76
2019-01-11T02:03:30.532Z,1018.76
2019-01-11T02:04:30.584Z,1018.83
2019-01-11T02:05:30.508Z,1018.78
2019-01-11T02:06:30.554Z,1018.71
2019-01-11T02:07:30.481Z,1018.75
2019-01-11T02:08:30.569Z,1018.77
2019-01-11T02:09:30.473Z,1018.74
2019-01-11T02:10:30.479Z,1018.78
2019-01-11T02:11:30.443Z,1018.70
2019-01-11T02:12:30.523Z,1018.68
2019-01-11T02:13:30.422Z,1018.70
2019-01-11T02:14:30.531Z,1018.70
2019-01-11T02:15:30.400Z,1018.74
2019-01-11T02:16:30.420Z,1018.74
2019-01-11T02:17:30.373Z,1018.70
2019-01-11T02:18:30.425Z,1018.65
2019-01-11T02:19:33.016Z,1018.68
2019-01-11T02:20:30.446Z,1018.69
2019-01-11T02:21:30.335Z,1018.67
2019-01-11T02:22:30.358Z,1018.65
2019-01-11T02:23:30.313Z,1018.65
2019-01-11T02:24:30.397Z,1018.58
2019-01-11T02:25:30.335Z,1018.63
2019-01-11T02:26:30.382Z,1018.63
2019-01-11T02:27:30.275Z,1018.59
2019-01-11T02:28:30.291Z,1018.60
2019-01-11T02:29:30.278Z,1018.48
2019-01-11T02:30:30.305Z,1018.52
2019-01-11T02:31:30.223Z,1018.50
2019-01-11T02:32:30.326Z,1018.45
2019-01-11T02:33:30.222Z,1018.42
2019-01-11T02:34:30.259Z,1018.46
2019-01-11T02:35:30.183Z,1018.47
2019-01-11T02:36:30.242Z,1018.44
2019-01-11T02:37:30.198Z,1018.45
2019-01-11T02:38:30.259Z,1018.47
2019-01-11T02:39:30.153Z,1018.42
2019-01-11T02:40:30.187Z,1018.41
2019-01-11T02:41:30.119Z,1018.43
2019-01-11T02:42:30.195Z,1018.44
2019-01-11T02:43:30.095Z,1018.39
2019-01-11T02:44:30.220Z,1018.36
2019-01-11T02:45:30.102Z,1018.42
2019-01-11T02:46:30.104Z,1018.35
2019-01-11T02:47:30.062Z,1018.37
2019-01-11T02:48:30.127Z,1018.37
2019-01-11T02:49:30.048Z,1018.35
2019-01-11T02:50:30.065Z,1018.37
2019-01-11T02:51:30.066Z,1018.36
2019-01-11T02:52:30.053Z,1018.39
2019-01-11T02:53:30.000Z,1018.31
2019-01-11T02:54:30.063Z,1018.34
2019-01-11T02:55:30.051Z,1018.35
2019-01-11T02:56:30.083Z,1018.33
2019-01-11T02:57:29.988Z,1018.34
2019-01-11T02:58:29.986Z,1018.33
2019-01-11T02:59:29.932Z,1018.27
2019-01-11T03:00:30.030Z,1018.26
2019-01-11T03:01:29.919Z,1018.23
2019-01-11T03:02:30.024Z,1018.23
2019-01-11T03:03:29.901Z,1018.24
2019-01-11T03:04:29.936Z,1018.21
2019-01-11T03:05:29.882Z,1018.17
2019-01-11T03:06:29.982Z,1018.20
2019-01-11T03:07:29.849Z,1018.21
2019-01-11T03:08:29.966Z,1018.16
2019-01-11T03:09:29.863Z,1018.09
2019-01-11T03:10:29.899Z,1018.12
2019-01-11T03:11:29.816Z,1018.08
2019-01-11T03:12:29.892Z,1018.06
2019-01-11T03:13:29.786Z,1018.09
2019-01-11T03:14:29.909Z,1018.04
2019-01-11T03:15:29.799Z,1018.06
2019-01-11T03:16:29.818Z,1018.00
2019-01-11T03:17:29.756Z,1018.02
2019-01-11T03:18:29.809Z,1017.96
2019-01-11T03:19:29.729Z,1018.02
2019-01-11T03:20:29.770Z,1018.03
2019-01-11T03:21:29.722Z,1018.00
2019-01-11T03:22:29.750Z,1018.05
2019-01-11T03:23:29.679Z,1018.03
2019-01-11T03:24:29.769Z,1018.05
2019-01-11T03:25:29.677Z,1018.07
2019-01-11T03:26:29.658Z,1018.08
2019-01-11T03:27:29.641Z,1018.08
2019-01-11T03:28:29.678Z,1018.09
2019-01-11T03:29:29.617Z,1018.10
2019-01-11T03:30:29.737Z,1018.09
2019-01-11T03:31:29.614Z,1018.07
2019-01-11T03:32:29.723Z,1018.04
2019-01-11T03:33:29.570Z,1018.04
2019-01-11T03:34:29.623Z,1018.05
2019-01-11T03:35:29.569Z,1018.05
2019-01-11T03:36:29.627Z,1018.09
2019-01-11T03:37:29.535Z,1018.03
2019-01-11T03:38:29.549Z,1018.05
2019-01-11T03:39:29.516Z,1017.98
2019-01-11T03:40:29.589Z,1018.01
2019-01-11T03:41:29.494Z,1018.05
2019-01-11T03:42:29.572Z,1018.00
2019-01-11T03:43:29.466Z,1018.01
2019-01-11T03:44:29.483Z,1017.99
2019-01-11T03:45:30.093Z,1017.97
2019-01-11T03:46:29.495Z,1018.02
2019-01-11T03:47:29.416Z,1018.00
2019-01-11T03:48:29.524Z,1017.95
2019-01-11T03:49:29.399Z,1017.92
2019-01-11T03:50:29.440Z,1017.92
2019-01-11T03:51:30.402Z,1017.89
2019-01-11T03:52:29.439Z,1017.91
2019-01-11T03:53:29.359Z,1017.87
2019-01-11T03:54:29.443Z,1017.87
2019-01-11T03:55:29.356Z,1017.88
2019-01-11T03:56:29.754Z,1017.86
2019-01-11T03:57:29.319Z,1017.84
2019-01-11T03:58:29.360Z,1017.87
2019-01-11T03:59:29.311Z,1017.82
2019-01-11T04:00:29.390Z,1017.82
2019-01-11T04:01:29.290Z,1017.80
2019-01-11T04:02:29.289Z,1017.79
2019-01-11T04:03:29.253Z,1017.75
2019-01-11T04:04:29.302Z,1017.76
2019-01-11T04:05:29.243Z,1017.73
2019-01-11T04:06:29.361Z,1017.73
2019-01-11T04:07:29.214Z,1017.73
2019-01-11T04:08:29.224Z,1017.68
2019-01-11T04:09:29.188Z,1017.63
2019-01-11T04:10:29.270Z,1017.66
2019-01-11T04:11:29.179Z,1017.56
2019-01-11T04:12:29.255Z,1017.59
2019-01-11T04:13:30.699Z,1017.67
2019-01-11T04:14:29.166Z,1017.63
2019-01-11T04:15:29.124Z,1017.72
2019-01-11T04:16:29.229Z,1017.71
2019-01-11T04:17:29.119Z,1017.74
2019-01-11T04:18:29.188Z,1017.68
2019-01-11T04:19:29.088Z,1017.72
2019-01-11T04:20:29.105Z,1017.71
2019-01-11T04:21:29.089Z,1017.67
2019-01-11T04:22:29.758Z,1017.76
2019-01-11T04:23:29.048Z,1017.73
2019-01-11T04:24:29.122Z,1017.74
2019-01-11T04:25:29.015Z,1017.73
2019-01-11T04:26:29.076Z,1017.67
2019-01-11T04:27:28.995Z,1017.64
2019-01-11T04:28:29.053Z,1017.69
2019-01-11T04:29:28.980Z,1017.68
2019-01-11T04:30:29.062Z,1017.67
2019-01-11T04:31:28.969Z,1017.65
2019-01-11T04:32:29.014Z,1017.59
2019-01-11T04:33:28.945Z,1017.61
2019-01-11T04:34:30.440Z,1017.62
2019-01-11T04:35:28.927Z,1017.58
2019-01-11T04:36:28.962Z,1017.57
2019-01-11T04:37:28.899Z,1017.55
2019-01-11T04:38:28.921Z,1017.50
2019-01-11T04:39:28.878Z,1017.54
2019-01-11T04:40:34.137Z,1017.55
2019-01-11T04:41:29.863Z,1017.52
2019-01-11T04:42:28.938Z,1017.56
2019-01-11T04:43:28.824Z,1017.54
2019-01-11T04:44:28.858Z,1017.47
2019-01-11T04:45:28.813Z,1017.43
2019-01-11T04:46:28.899Z,1017.46
2019-01-11T04:47:28.792Z,1017.49
2019-01-11T04:48:28.877Z,1017.54
2019-01-11T04:49:28.765Z,1017.44
2019-01-11T04:50:29.863Z,1017.44
2019-01-11T04:51:28.769Z,1017.39
2019-01-11T04:52:28.805Z,1017.35
2019-01-11T04:53:28.747Z,1017.36
2019-01-11T04:54:28.818Z,1017.35
2019-01-11T04:55:28.693Z,1017.33
2019-01-11T04:56:28.733Z,1017.33
2019-01-11T04:57:28.685Z,1017.34
2019-01-11T04:58:28.738Z,1017.38
2019-01-11T04:59:28.647Z,1017.31
2019-01-11T05:00:28.756Z,1017.33
2019-01-11T05:01:28.628Z,1017.35
2019-01-11T05:02:28.723Z,1017.33
2019-01-11T05:03:28.616Z,1017.29
2019-01-11T05:04:28.678Z,1017.32
2019-01-11T05:05:28.587Z,1017.25
2019-01-11T05:06:28.587Z,1017.27
2019-01-11T05:07:28.643Z,1017.25
2019-01-11T05:08:28.605Z,1017.21
2019-01-11T05:09:28.543Z,1017.17
2019-01-11T05:10:28.620Z,1017.19
2019-01-11T05:11:28.532Z,1017.21
2019-01-11T05:12:28.596Z,1017.25
2019-01-11T05:13:28.505Z,1017.26
2019-01-11T05:14:28.541Z,1017.21
2019-01-11T05:15:28.504Z,1017.25
2019-01-11T05:16:28.557Z,1017.24
2019-01-11T05:17:28.479Z,1017.24
2019-01-11T05:18:28.465Z,1017.18
2019-01-11T05:19:28.443Z,1017.21
2019-01-11T05:20:28.519Z,1017.21
2019-01-11T05:21:28.422Z,1017.19
2019-01-11T05:22:28.542Z,1017.14
2019-01-11T05:23:28.395Z,1017.15
2019-01-11T05:24:28.513Z,1017.08
2019-01-11T05:25:28.379Z,1017.07
2019-01-11T05:26:29.595Z,1017.05
2019-01-11T05:27:28.381Z,1017.02
2019-01-11T05:28:28.440Z,1017.00
2019-01-11T05:29:28.341Z,1017.04
2019-01-11T05:30:28.342Z,1016.95
2019-01-11T05:31:28.310Z,1016.98
2019-01-11T05:32:28.399Z,1016.99
2019-01-11T05:33:28.287Z,1016.94
2019-01-11T05:34:28.382Z,1017.02
2019-01-11T05:35:28.286Z,1017.07
2019-01-11T05:36:28.300Z,1017.04
2019-01-11T05:37:28.263Z,1017.04
2019-01-11T05:38:28.300Z,1017.12
2019-01-11T05:39:28.222Z,1017.09
2019-01-11T05:40:28.318Z,1017.09
2019-01-11T05:41:28.198Z,1017.18
2019-01-11T05:42:28.283Z,1017.17
2019-01-11T05:43:28.183Z,1017.15
2019-01-11T05:44:28.243Z,1017.18
2019-01-11T05:45:28.172Z,1017.14
2019-01-11T05:46:28.657Z,1017.13
2019-01-11T05:47:28.145Z,1017.16
2019-01-11T05:48:28.185Z,1017.11
2019-01-11T05:49:28.131Z,1017.18
2019-01-11T05:50:28.189Z,1017.13
2019-01-11T05:51:28.098Z,1017.08
2019-01-11T05:52:28.190Z,1017.08
2019-01-11T05:53:28.152Z,1017.13
2019-01-11T05:54:28.134Z,1017.06
2019-01-11T05:55:28.060Z,1017.08
2019-01-11T05:56:28.110Z,1017.03
2019-01-11T05:57:28.040Z,1016.99
2019-01-11T05:58:28.153Z,1017.04
2019-01-11T05:59:28.023Z,1017.03
2019-01-11T06:00:28.084Z,1017.02
2019-01-11T06:01:27.991Z,1017.03
2019-01-11T06:02:28.074Z,1017.05
2019-01-11T06:03:27.986Z,1016.97
2019-01-11T06:04:28.072Z,1017.00
2019-01-11T06:05:27.983Z,1017.00
2019-01-11T06:06:27.977Z,1017.02
2019-01-11T06:07:28.022Z,1017.02
2019-01-11T06:08:28.029Z,1017.04
2019-01-11T06:09:27.905Z,1016.99
2019-01-11T06:10:27.998Z,1017.03
2019-01-11T06:11:27.925Z,1017.04
2019-01-11T06:12:27.912Z,1016.98
2019-01-11T06:13:27.885Z,1016.98
2019-01-11T06:14:27.994Z,1016.91
2019-01-11T06:15:27.851Z,1016.97
2019-01-11T06:16:27.949Z,1016.95
2019-01-11T06:17:27.834Z,1016.93
2019-01-11T06:18:27.886Z,1016.97
2019-01-11T06:19:27.794Z,1016.96
2019-01-11T06:20:30.361Z,1016.98
2019-01-11T06:21:27.793Z,1016.96
2019-01-11T06:22:27.892Z,1016.94
2019-01-11T06:23:27.816Z,1016.98
2019-01-11T06:24:27.794Z,1017.03
2019-01-11T06:25:27.752Z,1016.96
2019-01-11T06:26:27.813Z,1016.98
2019-01-11T06:27:27.710Z,1017.00
2019-01-11T06:28:27.847Z,1017.00
2019-01-11T06:29:27.720Z,1016.98
2019-01-11T06:30:27.735Z,1016.94
2019-01-11T06:31:27.691Z,1016.95
2019-01-11T06:32:27.739Z,1016.95
2019-01-11T06:33:27.663Z,1016.90
2019-01-11T06:34:27.680Z,1016.96
2019-01-11T06:35:27.636Z,1016.98
2019-01-11T06:36:27.673Z,1016.99
2019-01-11T06:37:27.637Z,1017.00
2019-01-11T06:38:28.075Z,1016.94
2019-01-11T06:39:27.597Z,1016.93
2019-01-11T06:40:27.587Z,1016.92
2019-01-11T06:41:27.574Z,1016.91
2019-01-11T06:42:27.601Z,1016.92
2019-01-11T06:43:27.537Z,1016.92
2019-01-11T06:44:28.773Z,1016.89
2019-01-11T06:45:27.523Z,1016.81
2019-01-11T06:46:27.545Z,1016.83
2019-01-11T06:47:27.510Z,1016.82
2019-01-11T06:48:27.534Z,1016.84
2019-01-11T06:49:27.497Z,1016.83
2019-01-11T06:50:27.551Z,1016.89
2019-01-11T06:51:27.458Z,1016.93
2019-01-11T06:52:27.462Z,1016.88
2019-01-11T06:53:27.472Z,1016.86
2019-01-11T06:54:27.506Z,1016.87
2019-01-11T06:55:27.412Z,1016.78
2019-01-11T06:56:27.488Z,1016.76
2019-01-11T06:57:27.399Z,1016.77
2019-01-11T06:58:27.402Z,1016.78
2019-01-11T06:59:27.421Z,1016.83
2019-01-11T07:00:27.413Z,1016.80
2019-01-11T07:01:27.345Z,1016.88
2019-01-11T07:02:27.437Z,1016.83
2019-01-11T07:03:27.326Z,1016.89
2019-01-11T07:04:27.365Z,1016.87
2019-01-11T07:05:27.305Z,1016.86
2019-01-11T07:06:27.353Z,1016.86
2019-01-11T07:07:27.294Z,1016.84
2019-01-11T07:08:27.385Z,1016.88
2019-01-11T07:09:27.282Z,1016.92
2019-01-11T07:10:27.275Z,1016.88
2019-01-11T07:11:27.257Z,1016.84
2019-01-11T07:12:27.289Z,1016.82
2019-01-11T07:13:27.216Z,1016.82
2019-01-11T07:14:27.333Z,1016.80
2019-01-11T07:15:27.218Z,1016.81
2019-01-11T07:16:27.213Z,1016.83
2019-01-11T07:17:27.174Z,1016.83
2019-01-11T07:18:27.224Z,1016.80
2019-01-11T07:19:27.158Z,1016.79
2019-01-11T07:20:27.301Z,1016.80
2019-01-11T07:21:27.134Z,1016.78
2019-01-11T07:22:27.151Z,1016.81
2019-01-11T07:23:27.112Z,1016.79
2019-01-11T07:24:27.168Z,1016.79
2019-01-11T07:25:27.132Z,1016.87
2019-01-11T07:26:27.186Z,1016.88
2019-01-11T07:27:27.071Z,1016.85
2019-01-11T07:28:27.091Z,1016.82
2019-01-11T07:29:27.051Z,1016.78
2019-01-11T07:30:27.131Z,1016.82
2019-01-11T07:31:27.058Z,1016.88
2019-01-11T07:32:27.117Z,1016.80
2019-01-11T07:33:27.016Z,1016.81
2019-01-11T07:34:27.039Z,1016.81
2019-01-11T07:35:26.996Z,1016.77
2019-01-11T07:36:27.047Z,1016.86
2019-01-11T07:37:26.974Z,1016.79
2019-01-11T07:38:27.062Z,1016.85
2019-01-11T07:39:26.948Z,1016.83
2019-01-11T07:40:27.003Z,1016.81
2019-01-11T07:41:26.915Z,1016.77
2019-01-11T07:42:26.986Z,1016.71
2019-01-11T07:43:26.903Z,1016.76
2019-01-11T07:44:27.003Z,1016.72
2019-01-11T07:45:26.897Z,1016.71
2019-01-11T07:46:26.920Z,1016.76
2019-01-11T07:47:26.851Z,1016.71
2019-01-11T07:48:26.921Z,1016.71
2019-01-11T07:49:27.895Z,1016.72
2019-01-11T07:50:26.881Z,1016.73
2019-01-11T07:51:26.812Z,1016.67
2019-01-11T07:52:26.846Z,1016.73
2019-01-11T07:53:26.780Z,1016.71
2019-01-11T07:54:26.864Z,1016.71
2019-01-11T07:55:26.784Z,1016.68
2019-01-11T07:56:26.790Z,1016.73
2019-01-11T07:57:26.774Z,1016.67
2019-01-11T07:58:26.795Z,1016.63
2019-01-11T07:59:26.715Z,1016.65
2019-01-11T08:00:26.818Z,1016.64
2019-01-11T08:01:26.700Z,1016.63
2019-01-11T08:02:26.706Z,1016.64
2019-01-11T08:03:26.713Z,1016.70
2019-01-11T08:04:26.717Z,1016.62
2019-01-11T08:05:26.675Z,1016.68
2019-01-11T08:06:26.731Z,1016.65
2019-01-11T08:07:26.636Z,1016.64
2019-01-11T08:08:26.654Z,1016.65
2019-01-11T08:09:26.614Z,1016.69
2019-01-11T08:10:26.689Z,1016.69
2019-01-11T08:11:26.595Z,1016.67
2019-01-11T08:12:26.670Z,1016.71
2019-01-11T08:13:26.574Z,1016.65
2019-01-11T08:14:26.586Z,1016.68
2019-01-11T08:15:26.559Z,1016.69
2019-01-11T08:16:26.638Z,1016.69
2019-01-11T08:17:26.547Z,1016.63
2019-01-11T08:18:26.617Z,1016.61
2019-01-11T08:19:26.523Z,1016.63
2019-01-11T08:20:26.532Z,1016.61
2019-01-11T08:21:26.523Z,1016.60
2019-01-11T08:22:26.546Z,1016.60
2019-01-11T08:23:26.466Z,1016.57
2019-01-11T08:24:26.552Z,1016.54
2019-01-11T08:25:26.432Z,1016.54
2019-01-11T08:26:26.537Z,1016.46
2019-01-11T08:27:26.411Z,1016.56
2019-01-11T08:28:26.473Z,1016.51
2019-01-11T08:29:26.796Z,1016.47
2019-01-11T08:30:26.507Z,1016.48
2019-01-11T08:31:26.390Z,1016.50
2019-01-11T08:32:26.397Z,1016.58
2019-01-11T08:33:26.371Z,1016.54
2019-01-11T08:34:26.411Z,1016.47
2019-01-11T08:35:26.338Z,1016.46
2019-01-11T08:36:26.346Z,1016.44
2019-01-11T08:37:26.305Z,1016.44
2019-01-11T08:38:26.337Z,1016.47
2019-01-11T08:39:32.255Z,1016.40
2019-01-11T08:40:27.382Z,1016.40
2019-01-11T08:41:26.281Z,1016.40
2019-01-11T08:42:26.362Z,1016.35
2019-01-11T08:43:26.251Z,1016.41
2019-01-11T08:44:26.279Z,1016.44
2019-01-11T08:45:26.219Z,1016.42
2019-01-11T08:46:26.690Z,1016.42
2019-01-11T08:47:26.212Z,1016.40
2019-01-11T08:48:26.275Z,1016.38
2019-01-11T08:49:26.171Z,1016.41
2019-01-11T08:50:26.278Z,1016.38
2019-01-11T08:51:26.231Z,1016.37
2019-01-11T08:52:26.184Z,1016.40
2019-01-11T08:53:26.189Z,1016.41
2019-01-11T08:54:26.199Z,1016.41
2019-01-11T08:55:26.162Z,1016.34
2019-01-11T08:56:26.243Z,1016.47
2019-01-11T08:57:26.093Z,1016.47
2019-01-11T08:58:26.123Z,1016.49
2019-01-11T08:59:26.064Z,1016.56
2019-01-11T09:00:26.187Z,1016.50
2019-01-11T09:01:26.045Z,1016.53
2019-01-11T09:02:33.996Z,1016.56
2019-01-11T09:03:26.071Z,1016.57
2019-01-11T09:04:34.053Z,1016.52
2019-01-11T09:05:26.002Z,1016.54
2019-01-11T09:06:34.065Z,1016.53
2019-01-11T09:07:26.009Z,1016.59
2019-01-11T09:08:26.011Z,1016.57
2019-01-11T09:09:25.962Z,1016.58
2019-01-11T09:10:26.005Z,1016.63
2019-01-11T09:11:25.936Z,1016.52
2019-01-11T09:12:26.045Z,1016.55
2019-01-11T09:13:25.913Z,1016.62
2019-01-11T09:14:25.961Z,1016.59
2019-01-11T09:15:25.892Z,1016.53
2019-01-11T09:16:25.940Z,1016.53
2019-01-11T09:17:25.886Z,1016.51
2019-01-11T09:18:25.976Z,1016.52
2019-01-11T09:19:25.846Z,1016.48
2019-01-11T09:20:25.869Z,1016.47
2019-01-11T09:21:25.834Z,1016.51
2019-01-11T09:22:25.905Z,1016.52
2019-01-11T09:23:25.803Z,1016.56
2019-01-11T09:24:25.895Z,1016.48
2019-01-11T09:25:25.794Z,1016.52
2019-01-11T09:26:25.904Z,1016.52
2019-01-11T09:27:26.405Z,1016.56
2019-01-11T09:28:25.818Z,1016.57
2019-01-11T09:29:25.739Z,1016.57
2019-01-11T09:30:25.833Z,1016.59
2019-01-11T09:31:25.721Z,1016.54
2019-01-11T09:32:26.192Z,1016.59
2019-01-11T09:33:25.713Z,1016.56
2019-01-11T09:34:25.761Z,1016.56
2019-01-11T09:35:25.681Z,1016.55
2019-01-11T09:36:25.809Z,1016.55
2019-01-11T09:37:25.679Z,1016.54
2019-01-11T09:38:25.690Z,1016.55
2019-01-11T09:39:25.648Z,1016.56
2019-01-11T09:40:25.703Z,1016.55
2019-01-11T09:41:25.621Z,1016.50
2019-01-11T09:42:25.664Z,1016.57
2019-01-11T09:43:25.704Z,1016.51
2019-01-11T09:44:25.618Z,1016.51
2019-01-11T09:45:25.567Z,1016.48
2019-01-11T09:46:25.658Z,1016.52
2019-01-11T09:47:25.589Z,1016.51
2019-01-11T09:48:25.660Z,1016.46
2019-01-11T09:49:25.558Z,1016.54
2019-01-11T09:50:25.577Z,1016.45
2019-01-11T09:51:25.507Z,1016.52
2019-01-11T09:52:25.656Z,1016.44
2019-01-11T09:53:25.492Z,1016.49
2019-01-11T09:54:25.505Z,1016.46
2019-01-11T09:55:25.458Z,1016.43
2019-01-11T09:56:25.516Z,1016.44
2019-01-11T09:57:25.457Z,1016.46
2019-01-11T09:58:25.513Z,1016.44
2019-01-11T09:59:25.418Z,1016.49
2019-01-11T10:00:26.827Z,1016.44
2019-01-11T10:01:25.400Z,1016.47
2019-01-11T10:02:25.473Z,1016.42
2019-01-11T10:03:25.416Z,1016.46
2019-01-11T10:04:25.459Z,1016.41
2019-01-11T10:05:25.353Z,1016.40
2019-01-11T10:06:25.360Z,1016.39
2019-01-11T10:07:25.351Z,1016.37
2019-01-11T10:08:25.406Z,1016.36
2019-01-11T10:09:25.306Z,1016.33
2019-01-11T10:10:25.387Z,1016.32
2019-01-11T10:11:25.305Z,1016.30
2019-01-11T10:12:25.310Z,1016.27
2019-01-11T10:13:25.281Z,1016.30
2019-01-11T10:14:25.331Z,1016.24
2019-01-11T10:15:25.244Z,1016.26
2019-01-11T10:16:25.346Z,1016.26
2019-01-11T10:17:25.241Z,1016.26
2019-01-11T10:18:25.264Z,1016.24
2019-01-11T10:19:25.197Z,1016.19
2019-01-11T10:20:25.266Z,1016.19
2019-01-11T10:21:25.184Z,1016.23
2019-01-11T10:22:25.276Z,1016.22
2019-01-11T10:23:25.177Z,1016.23
2019-01-11T10:24:25.192Z,1016.25
2019-01-11T10:25:25.180Z,1016.23
2019-01-11T10:26:25.227Z,1016.22
2019-01-11T10:27:25.116Z,1016.21
2019-01-11T10:28:25.130Z,1016.21
2019-01-11T10:29:25.106Z,1016.15
2019-01-11T10:30:25.124Z,1016.15
2019-01-11T10:31:25.065Z,1016.19
2019-01-11T10:32:25.148Z,1016.15
2019-01-11T10:33:25.058Z,1016.15
2019-01-11T10:34:25.162Z,1016.20
2019-01-11T10:35:25.028Z,1016.14
2019-01-11T10:36:33.076Z,1016.14
2019-01-11T10:37:25.002Z,1016.15
2019-01-11T10:38:26.026Z,1016.10
2019-01-11T10:39:24.985Z,1016.11
2019-01-11T10:40:24.991Z,1016.05
2019-01-11T10:41:24.961Z,1016.07
2019-01-11T10:42:25.028Z,1016.03
2019-01-11T10:43:25.501Z,1016.00
2019-01-11T10:44:25.016Z,1016.02
2019-01-11T10:45:24.946Z,1015.96
2019-01-11T10:46:24.933Z,1015.95
2019-01-11T10:47:24.902Z,1015.92
2019-01-11T10:48:24.966Z,1015.87
2019-01-11T10:49:24.873Z,1015.88
2019-01-11T10:50:24.991Z,1015.87
2019-01-11T10:51:28.130Z,1015.85
2019-01-11T10:52:24.975Z,1015.92
2019-01-11T10:53:24.871Z,1015.91
2019-01-11T10:54:24.878Z,1015.91
2019-01-11T10:55:24.840Z,1015.90
2019-01-11T10:56:24.892Z,1015.86
2019-01-11T10:57:24.783Z,1015.91
2019-01-11T10:58:24.804Z,1015.92
2019-01-11T10:59:24.786Z,1015.88
2019-01-11T11:00:24.821Z,1015.90
2019-01-11T11:01:24.767Z,1015.85
2019-01-11T11:02:24.831Z,1015.85
2019-01-11T11:03:24.723Z,1015.84
2019-01-11T11:04:24.842Z,1015.86
2019-01-11T11:05:24.696Z,1015.83
2019-01-11T11:06:24.767Z,1015.83
2019-01-11T11:07:24.674Z,1015.81
2019-01-11T11:08:24.803Z,1015.84
2019-01-11T11:09:24.671Z,1015.78
2019-01-11T11:10:24.680Z,1015.72
2019-01-11T11:11:24.627Z,1015.76
2019-01-11T11:12:24.795Z,1015.72
2019-01-11T11:13:24.608Z,1015.70
2019-01-11T11:14:24.642Z,1015.73
2019-01-11T11:15:24.620Z,1015.65
2019-01-11T11:16:24.623Z,1015.70
2019-01-11T11:17:24.565Z,1015.70
2019-01-11T11:18:24.658Z,1015.66
2019-01-11T11:19:24.564Z,1015.70
2019-01-11T11:20:24.653Z,1015.65
2019-01-11T11:21:24.524Z,1015.61
2019-01-11T11:22:24.561Z,1015.55
2019-01-11T11:23:24.499Z,1015.65
2019-01-11T11:24:24.603Z,1015.60
2019-01-11T11:25:24.501Z,1015.56
2019-01-11T11:26:24.589Z,1015.53
2019-01-11T11:27:24.465Z,1015.64
2019-01-11T11:28:24.499Z,1015.58
2019-01-11T11:29:24.515Z,1015.59
2019-01-11T11:30:24.513Z,1015.56
2019-01-11T11:31:24.417Z,1015.58
2019-01-11T11:32:24.428Z,1015.52
2019-01-11T11:33:24.394Z,1015.49
2019-01-11T11:34:24.468Z,1015.54
2019-01-11T11:35:24.379Z,1015.56
2019-01-11T11:36:24.374Z,1015.49
2019-01-11T11:37:24.359Z,1015.52
2019-01-11T11:38:24.359Z,1015.52
2019-01-11T11:39:24.365Z,1015.42
2019-01-11T11:40:24.410Z,1015.43
2019-01-11T11:41:24.301Z,1015.39
2019-01-11T11:42:24.391Z,1015.43
2019-01-11T11:43:24.301Z,1015.40
2019-01-11T11:44:24.297Z,1015.45
2019-01-11T11:45:24.297Z,1015.46
2019-01-11T11:46:24.315Z,1015.39
2019-01-11T11:47:24.277Z,1015.39
2019-01-11T11:48:24.332Z,1015.39
2019-01-11T11:49:24.225Z,1015.40
2019-01-11T11:50:24.274Z,1015.39
2019-01-11T11:51:24.195Z,1015.40
2019-01-11T11:52:24.256Z,1015.36
2019-01-11T11:53:25.238Z,1015.31
2019-01-11T11:54:24.296Z,1015.31
2019-01-11T11:55:24.172Z,1015.32
2019-01-11T11:56:24.181Z,1015.29
2019-01-11T11:57:24.586Z,1015.28
2019-01-11T11:58:24.195Z,1015.29
2019-01-11T11:59:24.113Z,1015.25
2019-01-11T12:00:24.138Z,1015.33
2019-01-11T12:01:24.131Z,1015.31
2019-01-11T12:02:24.120Z,1015.25
2019-01-11T12:03:24.071Z,1015.21
2019-01-11T12:04:24.124Z,1015.21
2019-01-11T12:05:24.067Z,1015.14